Meath Environmental Platform

Observations for Trim Market St

Time AQI Temp °C Hum % Pres Pa CO μg/m³ H₂S μg/m³ NO μg/m³ NO₂ μg/m³ O₃ μg/m³ SO₂ μg/m³ PM1 μg/m³ PM2.5 μg/m³ PM10 μg/m³
Monday 17 August 2026
11:04 2 22.3 65 56,633 0.08 0 2.79 7.16 53.12 0 0 1.33 2.26
11:03 2 22.2 65 56,592 0.05 0 2.98 7.62 50.42 0 0 1.33 2.26
11:02 2 22.2 65 56,544 0.08 0 2.64 6.26 50.58 0 0 1.33 2.27
11:01 2 22.2 65 56,461 0.19 0 2.72 6.5 53.8 0 0 1.32 2.28
11:00 2 22.1 65 56,372 0.03 0 3.64 6.64 49.7 0 0 1.31 2.28
10:59 2 22.1 65 56,284 0.13 0 3.37 7.37 50.19 0 0 1.31 2.29
10:58 2 22.1 65 56,171 0.04 0 2.33 7.19 56.68 0 0 1.3 2.29
10:56 2 22 65 56,056 0.13 0 2.71 11.77 51.52 0 0 1.3 2.3
10:55 2 21.9 65 55,999 0 0 2.15 7.02 61.56 0 0 1.3 2.3
10:54 2 21.8 65 55,981 0 0 2.4 7.51 55.17 0 0 1.3 2.3
10:51 2 21.7 65 55,990 0.1 0 1.82 8.56 59 0 0 1.3 2.29
10:40 2 21.7 64 56,617 0 0 2.95 6.57 52.42 0 0.71 2.83 4.23
10:39 2 21.7 64 56,638 0 0 2.95 6.14 49.45 0 0.71 2.33 3.57
10:38 2 21.8 64 56,654 0 0 2.89 6.19 52.3 0 0.71 2.83 4.22
10:37 2 21.8 64 56,675 0.07 0 3.03 9.4 40.67 0 0.71 2.34 3.56
10:36 2 21.9 64 56,712 0 0 3 5.62 48.51 0 0.71 2.84 4.22
10:34 2 21.9 64 56,750 0 0 2.91 8.38 41.53 0 0.71 2.35 3.55
10:33 2 22 64 56,777 0 0 2.98 6.76 47.13 0 0.71 2.85 4.88
10:32 2 22 64 56,793 0 0 3.04 6.33 41.59 0 0 2.85 4.21
10:31 2 22 64 56,802 0 0 3.49 5.4 43.54 0 0.71 2.35 3.55